createdAt,value
2023-01-07T00:02:09.695Z,16.52
2023-01-07T00:04:37.578Z,15.43
2023-01-07T00:07:05.531Z,14.95
2023-01-07T00:09:33.319Z,13.32
2023-01-07T00:12:01.278Z,15.35
2023-01-07T00:14:28.996Z,15.63
2023-01-07T00:16:57.035Z,13.68
2023-01-07T00:19:26.121Z,11.63
2023-01-07T00:21:54.856Z,13.73
2023-01-07T00:24:23.033Z,15.25
2023-01-07T00:26:51.068Z,16.42
2023-01-07T00:29:19.241Z,14.00
2023-01-07T00:31:47.315Z,14.68
2023-01-07T00:34:15.176Z,14.75
2023-01-07T00:36:46.684Z,16.20
2023-01-07T00:39:16.483Z,15.10
2023-01-07T00:42:06.442Z,15.25
2023-01-07T00:44:34.574Z,14.27
2023-01-07T00:47:03.033Z,14.45
2023-01-07T00:49:30.811Z,15.13
2023-01-07T00:52:00.104Z,14.50
2023-01-07T00:54:27.785Z,14.35
2023-01-07T00:56:55.709Z,14.70
2023-01-07T00:59:23.562Z,14.20
2023-01-07T01:01:51.525Z,13.38
2023-01-07T01:04:19.754Z,14.27
2023-01-07T01:06:47.906Z,15.20
2023-01-07T01:09:16.956Z,14.63
2023-01-07T01:11:44.945Z,14.10
2023-01-07T01:14:13.096Z,14.48
2023-01-07T01:16:41.090Z,15.00
2023-01-07T01:19:08.924Z,13.20
2023-01-07T01:21:37.060Z,13.77
2023-01-07T01:24:05.188Z,13.75
2023-01-07T01:26:34.455Z,13.15
2023-01-07T01:29:02.160Z,13.20
2023-01-07T01:31:30.185Z,13.20
2023-01-07T01:33:59.733Z,13.35
2023-01-07T01:36:27.910Z,13.95
2023-01-07T01:38:57.294Z,14.02
2023-01-07T01:41:25.557Z,14.02
2023-01-07T01:43:54.613Z,14.60
2023-01-07T01:46:32.069Z,12.90
2023-01-07T01:49:03.676Z,15.05
2023-01-07T01:51:36.118Z,14.05
2023-01-07T01:54:08.166Z,15.48
2023-01-07T01:59:10.098Z,13.23
2023-01-07T02:01:38.579Z,14.43
2023-01-07T02:04:11.274Z,15.88
2023-01-07T02:06:44.848Z,15.30
2023-01-07T02:09:13.249Z,15.25
2023-01-07T02:11:50.153Z,15.30
2023-01-07T02:14:42.816Z,15.88
2023-01-07T02:17:18.571Z,15.93
2023-01-07T02:20:20.870Z,16.15
2023-01-07T02:23:22.722Z,15.85
2023-01-07T02:26:28.132Z,15.48
2023-01-07T02:29:27.239Z,15.27
2023-01-07T02:32:26.026Z,15.45
2023-01-07T02:35:05.079Z,16.25
2023-01-07T02:37:40.904Z,17.02
2023-01-07T02:40:16.896Z,17.02
2023-01-07T02:42:52.675Z,16.27
2023-01-07T02:45:28.270Z,15.70
2023-01-07T02:48:00.727Z,16.08
2023-01-07T02:50:28.826Z,14.65
2023-01-07T02:52:56.738Z,16.60
2023-01-07T02:55:33.574Z,15.57
2023-01-07T02:58:36.246Z,16.77
2023-01-07T03:01:25.157Z,16.05
2023-01-07T03:04:14.993Z,16.88
2023-01-07T03:07:02.107Z,15.25
2023-01-07T03:09:38.828Z,15.73
2023-01-07T03:12:10.383Z,15.73
2023-01-07T03:14:45.160Z,16.55
2023-01-07T03:17:19.330Z,17.35
2023-01-07T03:19:52.267Z,17.88
2023-01-07T03:22:23.264Z,18.77
2023-01-07T03:24:54.534Z,18.58
2023-01-07T03:27:24.657Z,18.90
2023-01-07T03:29:54.004Z,17.55
2023-01-07T03:32:26.037Z,17.92
2023-01-07T03:34:56.281Z,17.83
2023-01-07T03:37:26.701Z,17.15
2023-01-07T03:39:55.191Z,17.70
2023-01-07T03:42:43.194Z,17.92
2023-01-07T03:45:13.338Z,19.52
2023-01-07T03:47:45.017Z,18.08
2023-01-07T03:50:14.844Z,19.67
2023-01-07T03:52:43.028Z,18.77
2023-01-07T03:55:11.706Z,18.65
2023-01-07T03:57:39.803Z,19.52
2023-01-07T04:00:11.193Z,21.55
2023-01-07T04:02:39.936Z,21.73
2023-01-07T04:05:09.566Z,21.10
2023-01-07T04:07:39.059Z,21.35
2023-01-07T04:10:08.155Z,21.65
2023-01-07T04:12:36.566Z,21.45
2023-01-07T04:15:05.168Z,20.80
2023-01-07T04:17:33.756Z,20.17
2023-01-07T04:20:01.550Z,22.95
2023-01-07T04:22:29.496Z,21.70
2023-01-07T04:24:58.969Z,20.67
2023-01-07T04:27:26.878Z,23.45
2023-01-07T04:29:54.602Z,23.00
2023-01-07T04:32:22.638Z,23.40
2023-01-07T04:34:50.364Z,24.48
2023-01-07T04:37:18.364Z,23.23
2023-01-07T04:39:46.082Z,23.02
2023-01-07T04:42:15.390Z,21.63
2023-01-07T04:44:43.260Z,22.00
2023-01-07T04:47:11.181Z,21.60
2023-01-07T04:49:38.863Z,24.63
2023-01-07T04:52:06.958Z,23.35
2023-01-07T04:54:34.813Z,26.08
2023-01-07T04:57:03.042Z,30.45
2023-01-07T04:59:32.045Z,25.38
2023-01-07T05:02:00.178Z,24.10
2023-01-07T05:04:28.177Z,34.65
2023-01-07T05:06:56.188Z,33.53
2023-01-07T05:09:23.846Z,34.30
2023-01-07T05:11:52.078Z,27.63
2023-01-07T05:14:19.805Z,26.83
2023-01-07T05:16:49.180Z,25.23
2023-01-07T05:19:17.108Z,23.70
2023-01-07T05:21:45.084Z,24.75
2023-01-07T05:24:12.785Z,26.60
2023-01-07T05:26:40.708Z,27.10
2023-01-07T05:29:08.405Z,26.27
2023-01-07T05:31:36.337Z,27.55
2023-01-07T05:34:05.458Z,26.92
2023-01-07T05:36:33.409Z,29.30
2023-01-07T05:39:01.175Z,27.25
2023-01-07T05:41:29.282Z,24.77
2023-01-07T05:43:56.954Z,27.33
2023-01-07T05:46:25.135Z,25.63
2023-01-07T05:48:54.140Z,26.65
2023-01-07T05:51:23.442Z,25.73
2023-01-07T05:53:51.188Z,30.88
2023-01-07T05:56:19.342Z,26.85
2023-01-07T05:58:47.193Z,29.63
2023-01-07T06:01:15.377Z,24.45
2023-01-07T06:03:43.199Z,24.27
2023-01-07T06:06:11.341Z,23.80
2023-01-07T06:08:40.590Z,22.98
2023-01-07T06:11:09.266Z,22.65
2023-01-07T06:13:37.499Z,22.60
2023-01-07T06:16:08.244Z,24.08
2023-01-07T06:18:36.936Z,24.95
2023-01-07T06:21:05.309Z,24.98
2023-01-07T06:23:33.000Z,25.17
2023-01-07T06:26:02.316Z,27.15
2023-01-07T06:28:30.409Z,26.95
2023-01-07T06:30:58.487Z,27.42
2023-01-07T06:33:26.297Z,29.45
2023-01-07T06:35:54.429Z,31.85
2023-01-07T06:38:22.173Z,35.53
2023-01-07T06:40:50.125Z,33.17
2023-01-07T06:43:19.270Z,31.42
2023-01-07T06:45:47.268Z,29.48
2023-01-07T06:48:14.979Z,25.85
2023-01-07T06:50:42.983Z,25.08
2023-01-07T06:53:10.741Z,25.08
2023-01-07T06:55:38.722Z,23.35
2023-01-07T06:58:06.525Z,24.73
2023-01-07T07:00:35.882Z,23.15
2023-01-07T07:03:03.731Z,24.65
2023-01-07T07:05:31.955Z,22.98
2023-01-07T07:08:00.289Z,23.35
2023-01-07T07:10:28.339Z,23.15
2023-01-07T07:12:56.130Z,23.63
2023-01-07T07:15:24.206Z,25.98
2023-01-07T07:17:53.266Z,28.88
2023-01-07T07:20:21.339Z,28.48
2023-01-07T07:22:49.578Z,26.77
2023-01-07T07:25:17.797Z,27.50
2023-01-07T07:27:47.141Z,28.73
2023-01-07T07:30:15.819Z,28.73
2023-01-07T07:32:44.041Z,27.85
2023-01-07T07:35:14.027Z,34.70
2023-01-07T07:37:41.874Z,31.92
2023-01-07T07:40:11.072Z,31.73
2023-01-07T07:43:09.534Z,30.73
2023-01-07T07:45:27.533Z,33.03
2023-01-07T07:47:55.247Z,33.20
2023-01-07T07:50:24.926Z,33.70
2023-01-07T07:52:52.634Z,32.88
2023-01-07T07:55:26.084Z,33.10
2023-01-07T07:57:54.341Z,32.58
2023-01-07T08:00:22.620Z,34.55
2023-01-07T08:02:50.362Z,36.00
2023-01-07T08:05:18.698Z,34.97
2023-01-07T08:07:47.683Z,34.78
2023-01-07T08:10:15.624Z,29.00
2023-01-07T08:12:43.291Z,28.08
2023-01-07T08:15:11.855Z,27.85
2023-01-07T08:17:39.749Z,28.35
2023-01-07T08:20:09.333Z,27.05
2023-01-07T08:22:37.123Z,25.17
2023-01-07T08:25:07.435Z,24.58
2023-01-07T08:27:35.289Z,25.15
2023-01-07T08:30:03.596Z,23.75
2023-01-07T08:32:31.339Z,24.45
2023-01-07T08:34:59.267Z,24.00
2023-01-07T08:37:26.940Z,23.85
2023-01-07T08:39:54.871Z,24.35
2023-01-07T08:42:24.096Z,21.52
2023-01-07T08:44:52.051Z,23.70
2023-01-07T08:47:19.749Z,22.13
2023-01-07T08:49:47.771Z,21.63
2023-01-07T08:52:15.475Z,22.35
2023-01-07T08:54:43.444Z,20.08
2023-01-07T08:57:11.163Z,20.63
2023-01-07T08:59:40.833Z,21.35
2023-01-07T09:02:11.896Z,20.42
2023-01-07T09:04:39.923Z,20.67
2023-01-07T09:07:07.615Z,20.52
2023-01-07T09:09:35.707Z,19.90
2023-01-07T09:12:04.044Z,19.17
2023-01-07T09:14:32.453Z,18.73
2023-01-07T09:17:01.456Z,19.83
2023-01-07T09:19:29.629Z,20.05
2023-01-07T09:21:57.394Z,17.83
2023-01-07T09:24:25.398Z,19.25
2023-01-07T09:26:53.228Z,18.92
2023-01-07T09:29:21.204Z,18.50
2023-01-07T09:31:49.158Z,16.58
2023-01-07T09:34:18.482Z,17.10
2023-01-07T09:36:46.176Z,14.93
2023-01-07T09:39:14.622Z,15.50
2023-01-07T09:41:53.542Z,12.90
2023-01-07T09:44:32.851Z,13.20
2023-01-07T09:47:02.267Z,12.98
2023-01-07T09:49:33.293Z,13.77
2023-01-07T09:52:09.399Z,13.07
2023-01-07T09:54:39.521Z,12.77
2023-01-07T09:57:09.617Z,12.00
2023-01-07T09:59:37.679Z,11.93
2023-01-07T10:02:31.664Z,10.07
2023-01-07T10:05:18.109Z,11.20
2023-01-07T10:07:52.559Z,10.75
2023-01-07T10:10:50.355Z,10.55
2023-01-07T10:13:38.522Z,11.18
2023-01-07T10:16:11.281Z,10.70
2023-01-07T10:18:48.310Z,9.77
2023-01-07T10:21:23.149Z,10.35
2023-01-07T10:23:57.212Z,7.60
2023-01-07T10:26:33.042Z,19.92
2023-01-07T10:29:06.265Z,13.80
2023-01-07T10:31:34.504Z,13.82
2023-01-07T10:34:02.396Z,11.63
2023-01-07T10:36:38.284Z,14.00
2023-01-07T10:39:20.775Z,15.57
2023-01-07T10:42:01.136Z,15.48
2023-01-07T10:45:15.402Z,17.40
2023-01-07T10:47:57.166Z,13.93
2023-01-07T10:50:46.060Z,14.07
2023-01-07T10:53:28.491Z,13.23
2023-01-07T10:56:06.649Z,14.13
2023-01-07T10:58:40.300Z,14.43
2023-01-07T11:01:09.516Z,12.50
2023-01-07T11:03:40.099Z,13.60
2023-01-07T11:06:12.801Z,14.88
2023-01-07T11:08:43.715Z,13.73
2023-01-07T11:11:16.681Z,13.57
2023-01-07T11:13:56.276Z,12.73
2023-01-07T11:16:27.682Z,11.32
2023-01-07T11:19:01.262Z,12.93
2023-01-07T11:21:43.965Z,13.00
2023-01-07T11:24:41.117Z,12.98
2023-01-07T11:27:15.412Z,13.48
2023-01-07T11:29:45.281Z,14.15
2023-01-07T11:32:21.830Z,13.55
2023-01-07T11:34:56.291Z,15.70
2023-01-07T11:37:42.999Z,15.05
2023-01-07T11:40:22.750Z,14.60
2023-01-07T11:42:53.923Z,13.43
2023-01-07T11:45:24.524Z,13.10
2023-01-07T11:48:03.439Z,12.18
2023-01-07T11:50:36.906Z,15.43
2023-01-07T11:53:22.636Z,13.90
2023-01-07T11:56:00.511Z,11.45
2023-01-07T11:58:31.398Z,11.48
2023-01-07T12:01:17.148Z,12.70
2023-01-07T12:04:02.749Z,13.23
2023-01-07T12:06:33.526Z,12.95
2023-01-07T12:09:05.768Z,13.02
2023-01-07T12:11:38.234Z,14.55
2023-01-07T12:14:09.670Z,14.02
2023-01-07T12:16:38.228Z,12.57
2023-01-07T12:19:22.564Z,12.63
2023-01-07T12:22:10.083Z,14.30
2023-01-07T12:25:00.336Z,17.63
2023-01-07T12:27:42.432Z,13.93
2023-01-07T12:30:30.812Z,13.07
2023-01-07T12:33:08.744Z,13.40
2023-01-07T12:35:40.237Z,12.35
2023-01-07T12:38:15.309Z,13.77
2023-01-07T12:40:48.405Z,13.00
2023-01-07T12:43:22.676Z,14.00
2023-01-07T12:45:54.932Z,14.00
2023-01-07T12:48:27.111Z,13.45
2023-01-07T12:50:58.735Z,14.25
2023-01-07T12:53:35.139Z,14.25
2023-01-07T12:56:08.074Z,17.55
2023-01-07T12:58:46.774Z,15.63
2023-01-07T13:01:26.345Z,14.50
2023-01-07T13:04:07.301Z,14.00
2023-01-07T13:06:49.700Z,15.27
2023-01-07T13:09:26.615Z,15.82
2023-01-07T13:12:40.857Z,15.45
2023-01-07T13:15:17.652Z,17.08
2023-01-07T13:17:45.416Z,19.92
2023-01-07T13:20:14.732Z,24.42
2023-01-07T13:22:47.217Z,34.85
2023-01-07T13:25:32.870Z,38.17
2023-01-07T13:28:18.287Z,26.50
2023-01-07T13:31:00.617Z,24.52
2023-01-07T13:33:35.436Z,23.38
2023-01-07T13:36:14.639Z,19.65
2023-01-07T13:38:58.471Z,17.45
2023-01-07T13:41:50.590Z,16.35
2023-01-07T13:44:39.775Z,16.38
2023-01-07T13:47:14.051Z,15.07
2023-01-07T13:49:56.702Z,15.38
2023-01-07T13:52:27.825Z,15.27
2023-01-07T13:54:57.566Z,16.60
2023-01-07T13:57:45.633Z,13.45
2023-01-07T14:00:39.259Z,13.70
2023-01-07T14:06:38.730Z,13.20
2023-01-07T14:09:20.743Z,11.80
2023-01-07T14:12:25.707Z,11.57
2023-01-07T14:15:13.618Z,12.35
2023-01-07T14:17:52.329Z,11.63
2023-01-07T14:20:32.246Z,11.45
2023-01-07T14:23:13.087Z,10.93
2023-01-07T14:25:59.123Z,11.70
2023-01-07T14:28:44.674Z,11.18
2023-01-07T14:31:22.190Z,10.88
2023-01-07T14:33:53.688Z,11.70
2023-01-07T14:36:21.710Z,11.75
2023-01-07T14:39:00.287Z,11.88
2023-01-07T14:41:28.485Z,12.90
2023-01-07T14:44:27.416Z,12.00
2023-01-07T14:46:55.645Z,11.90
2023-01-07T14:49:35.918Z,11.73
2023-01-07T14:52:11.314Z,13.23
2023-01-07T14:55:07.934Z,11.43
2023-01-07T14:57:45.779Z,13.10
2023-01-07T15:00:44.010Z,13.35
2023-01-07T15:03:30.872Z,12.98
2023-01-07T15:06:25.623Z,12.90
2023-01-07T15:09:18.416Z,13.45
2023-01-07T15:12:06.988Z,14.40
2023-01-07T15:14:59.153Z,15.02
2023-01-07T15:17:27.168Z,14.18
2023-01-07T15:19:56.381Z,14.43
2023-01-07T15:22:40.876Z,15.30
2023-01-07T15:25:15.918Z,14.50
2023-01-07T15:27:53.600Z,13.35
2023-01-07T15:30:31.637Z,14.40
2023-01-07T15:33:14.411Z,13.95
2023-01-07T15:35:45.613Z,12.80
2023-01-07T15:38:29.830Z,12.77
2023-01-07T15:40:59.892Z,12.90
2023-01-07T15:43:31.258Z,13.07
2023-01-07T15:46:01.886Z,15.65
2023-01-07T15:48:30.058Z,16.13
2023-01-07T15:51:00.013Z,22.08
2023-01-07T15:53:29.756Z,24.48
2023-01-07T15:56:02.989Z,31.63
2023-01-07T15:58:40.181Z,39.58
2023-01-07T16:01:14.983Z,30.85
2023-01-07T16:03:44.536Z,27.35
2023-01-07T16:06:27.997Z,32.88
2023-01-07T16:08:55.769Z,37.97
2023-01-07T16:11:26.670Z,33.42
2023-01-07T16:14:00.509Z,51.25
2023-01-07T16:16:30.135Z,82.32
2023-01-07T16:18:59.269Z,115.93
2023-01-07T16:21:30.004Z,120.57
2023-01-07T16:23:57.999Z,132.70
2023-01-07T16:26:33.521Z,126.80
2023-01-07T16:29:08.145Z,90.03
2023-01-07T16:31:37.745Z,84.78
2023-01-07T16:34:45.101Z,86.45
2023-01-07T16:37:16.799Z,52.00
2023-01-07T16:39:47.550Z,45.73
2023-01-07T16:42:23.311Z,45.05
2023-01-07T16:45:05.754Z,49.55
2023-01-07T16:47:35.090Z,49.78
2023-01-07T16:50:37.429Z,47.03
2023-01-07T16:53:21.545Z,51.03
2023-01-07T16:55:51.511Z,42.63
2023-01-07T16:58:27.848Z,46.60
2023-01-07T17:00:59.649Z,40.08
2023-01-07T17:03:29.552Z,41.90
2023-01-07T17:06:00.765Z,43.75
2023-01-07T17:08:29.696Z,41.23
2023-01-07T17:11:00.434Z,42.88
2023-01-07T17:13:35.134Z,43.35
2023-01-07T17:16:24.042Z,54.58
2023-01-07T17:18:52.592Z,56.33
2023-01-07T17:21:41.619Z,55.53
2023-01-07T17:24:40.831Z,51.65
2023-01-07T17:27:21.434Z,53.95
2023-01-07T17:29:49.986Z,50.83
2023-01-07T17:32:19.227Z,61.95
2023-01-07T17:34:47.303Z,56.47
2023-01-07T17:37:16.935Z,51.35
2023-01-07T17:39:45.539Z,55.72
2023-01-07T17:42:42.471Z,60.65
2023-01-07T17:45:16.214Z,64.80
2023-01-07T17:47:46.336Z,84.25
2023-01-07T17:50:15.733Z,84.82
2023-01-07T17:52:46.136Z,86.30
2023-01-07T17:55:16.455Z,71.82
2023-01-07T17:57:44.151Z,71.20
2023-01-07T18:00:20.192Z,70.72
2023-01-07T18:02:50.010Z,62.22
2023-01-07T18:05:19.757Z,68.03
2023-01-07T18:07:47.878Z,64.72
2023-01-07T18:10:17.386Z,72.22
2023-01-07T18:12:44.872Z,62.20
2023-01-07T18:15:18.967Z,65.47
2023-01-07T18:17:47.162Z,70.90
2023-01-07T18:20:17.276Z,75.55
2023-01-07T18:22:45.209Z,75.60
2023-01-07T18:25:18.250Z,81.45
2023-01-07T18:27:46.568Z,70.60
2023-01-07T18:30:17.388Z,66.60
2023-01-07T18:32:45.133Z,56.08
2023-01-07T18:35:13.199Z,54.97
2023-01-07T18:37:42.435Z,57.97
2023-01-07T18:40:11.706Z,57.00
2023-01-07T18:42:39.440Z,59.58
2023-01-07T18:45:08.433Z,63.00
2023-01-07T18:47:36.258Z,64.93
2023-01-07T18:50:04.541Z,65.05
2023-01-07T18:52:33.413Z,66.85
2023-01-07T18:55:02.784Z,72.50
2023-01-07T18:57:30.490Z,77.55
2023-01-07T18:59:58.441Z,79.60
2023-01-07T19:02:26.398Z,79.88
2023-01-07T19:04:54.470Z,89.53
2023-01-07T19:07:22.166Z,96.35
2023-01-07T19:09:50.101Z,85.25
2023-01-07T19:12:19.142Z,88.22
2023-01-07T19:14:47.095Z,87.72
2023-01-07T19:17:14.815Z,85.57
2023-01-07T19:19:48.336Z,86.57
2023-01-07T19:22:17.090Z,82.15
2023-01-07T19:24:45.713Z,86.93
2023-01-07T19:27:13.624Z,84.25
2023-01-07T19:29:43.422Z,92.30
2023-01-07T19:32:11.187Z,95.40
2023-01-07T19:34:39.124Z,102.85
2023-01-07T19:37:06.996Z,102.55
2023-01-07T19:39:35.179Z,109.93
2023-01-07T19:42:03.228Z,115.47
2023-01-07T19:44:31.373Z,106.20
2023-01-07T19:47:00.369Z,126.10
2023-01-07T19:49:29.711Z,154.88
2023-01-07T19:51:57.710Z,138.93
2023-01-07T19:54:25.759Z,96.82
2023-01-07T19:56:54.423Z,101.93
2023-01-07T19:59:22.407Z,92.20
2023-01-07T20:01:50.570Z,91.60
2023-01-07T20:04:20.159Z,90.80
2023-01-07T20:06:47.961Z,81.10
2023-01-07T20:09:15.907Z,76.15
2023-01-07T20:11:43.585Z,74.22
2023-01-07T20:14:12.750Z,77.47
2023-01-07T20:16:41.718Z,86.10
2023-01-07T20:19:11.300Z,94.78
2023-01-07T20:21:40.826Z,95.55
2023-01-07T20:24:09.675Z,107.97
2023-01-07T20:26:38.177Z,153.75
2023-01-07T20:29:06.349Z,107.40
2023-01-07T20:31:34.316Z,89.15
2023-01-07T20:34:02.344Z,100.93
2023-01-07T20:36:32.398Z,113.18
2023-01-07T20:39:05.640Z,133.63
2023-01-07T20:41:35.718Z,98.57
2023-01-07T20:44:05.798Z,124.45
2023-01-07T20:46:34.677Z,89.18
2023-01-07T20:49:03.432Z,66.90
2023-01-07T20:51:31.670Z,67.70
2023-01-07T20:54:00.961Z,86.78
2023-01-07T20:56:31.972Z,98.40
2023-01-07T20:59:01.689Z,90.68
2023-01-07T21:01:29.868Z,116.95
2023-01-07T21:03:57.985Z,98.72
2023-01-07T21:06:26.111Z,95.55
2023-01-07T21:08:54.224Z,100.63
2023-01-07T21:11:24.468Z,91.22
2023-01-07T21:13:55.973Z,97.40
2023-01-07T21:16:24.222Z,98.65
2023-01-07T21:18:52.224Z,85.07
2023-01-07T21:21:23.889Z,77.50
2023-01-07T21:23:52.353Z,78.70
2023-01-07T21:26:20.727Z,76.05
2023-01-07T21:28:55.594Z,78.93
2023-01-07T21:31:23.665Z,83.90
2023-01-07T21:33:54.912Z,79.82
2023-01-07T21:36:23.306Z,75.60
2023-01-07T21:38:54.936Z,76.38
2023-01-07T21:41:24.475Z,83.97
2023-01-07T21:43:53.945Z,80.28
2023-01-07T21:46:22.996Z,77.38
2023-01-07T21:48:51.797Z,71.35
2023-01-07T21:51:22.105Z,71.55
2023-01-07T21:53:52.011Z,73.28
2023-01-07T21:56:20.452Z,65.28
2023-01-07T21:58:48.973Z,69.47
2023-01-07T22:01:19.651Z,68.68
2023-01-07T22:03:49.983Z,70.38
2023-01-07T22:06:20.717Z,72.88
2023-01-07T22:08:49.120Z,74.45
2023-01-07T22:11:18.411Z,71.90
2023-01-07T22:13:50.960Z,68.13
2023-01-07T22:18:48.409Z,62.17
2023-01-07T22:21:17.194Z,66.90
2023-01-07T22:23:46.780Z,60.58
2023-01-07T22:26:16.524Z,56.95
2023-01-07T22:28:47.450Z,55.97
2023-01-07T22:31:19.500Z,52.58
2023-01-07T22:36:22.699Z,52.92
2023-01-07T22:38:52.355Z,55.25
2023-01-07T22:41:20.062Z,56.03
2023-01-07T22:43:48.041Z,55.78
2023-01-07T22:46:22.042Z,55.63
2023-01-07T22:48:51.965Z,57.38
2023-01-07T22:51:24.739Z,56.75
2023-01-07T22:53:55.485Z,55.72
2023-01-07T22:56:23.432Z,60.45
2023-01-07T22:58:51.488Z,62.50
2023-01-07T23:01:19.463Z,61.20
2023-01-07T23:03:47.536Z,66.22
2023-01-07T23:06:17.780Z,63.70
2023-01-07T23:08:46.423Z,65.75
2023-01-07T23:11:34.901Z,65.47
2023-01-07T23:14:03.345Z,56.83
2023-01-07T23:16:31.138Z,59.72
2023-01-07T23:18:59.250Z,61.70
2023-01-07T23:21:28.274Z,64.00
2023-01-07T23:23:56.347Z,61.42
2023-01-07T23:26:24.019Z,58.58
2023-01-07T23:28:51.983Z,52.55
2023-01-07T23:31:19.782Z,52.22
2023-01-07T23:33:48.066Z,50.30
2023-01-07T23:36:15.759Z,51.25
2023-01-07T23:38:45.526Z,52.03
2023-01-07T23:41:13.864Z,56.92
2023-01-07T23:43:41.946Z,53.28
2023-01-07T23:46:09.692Z,51.78
2023-01-07T23:48:38.900Z,57.92
2023-01-07T23:51:08.411Z,58.38
2023-01-07T23:53:36.939Z,50.92
2023-01-07T23:56:07.521Z,55.40
2023-01-07T23:58:36.643Z,52.22
